Dewitt, Kentucky
Current Conditions -  °F | °C
As of 4:55 AM on Thursday 29 Jan 2015 (Local Time) from K1A6 Reporting Station
Clear Clear  
Wind Chill: 28°   Ceiling: Unl
Heat Index: 33°   Visibility: 10mi
Dew Point: 22°   Wind: 5mph
Humidity: 65%   Direction: 190°S
Pressure: 30.17"   Gusts: NA
Location:  36.85°N, 83.73°W
Report Text: K1A6 290955Z AUTO 19004KT 10SM CLR 00/M05 A3017 RMK AO2 T00041054
Loading
Personal Weather Stations






























Interactive Weather Map New forecast layout! Learn more

10-Day Weather Forecast

Advertisements
Track Severe Weather on mobile